sensor_id;sensor_type;location;lat;lon;timestamp;pressure;altitude;pressure_sealevel;temperature;humidity
74913;BME280;63878;55.624;37.304;2023-08-31T00:03:30;98954.31;;;14.16;66.33
74913;BME280;63878;55.624;37.304;2023-08-31T00:13:31;98940.41;;;14.14;66.66
74913;BME280;63878;55.624;37.304;2023-08-31T00:23:31;98923.72;;;14.13;66.61
74913;BME280;63878;55.624;37.304;2023-08-31T00:33:32;98947.53;;;14.41;66.46
74913;BME280;63878;55.624;37.304;2023-08-31T00:43:33;98951.91;;;14.32;66.68
74913;BME280;63878;55.624;37.304;2023-08-31T00:53:34;98959.28;;;14.56;66.05
74913;BME280;63878;55.624;37.304;2023-08-31T01:03:53;98942.41;;;14.67;65.08
74913;BME280;63878;55.624;37.304;2023-08-31T01:14:07;98934.47;;;14.39;66.43
74913;BME280;63878;55.624;37.304;2023-08-31T01:24:10;98930.47;;;14.35;66.19
74913;BME280;63878;55.624;37.304;2023-08-31T01:34:12;98922.84;;;14.32;67.06
74913;BME280;63878;55.624;37.304;2023-08-31T01:44:15;98922.75;;;14.04;67.89
74913;BME280;63878;55.624;37.304;2023-08-31T01:54:16;98899.34;;;13.82;68.51
74913;BME280;63878;55.624;37.304;2023-08-31T02:04:17;98912.75;;;14.08;68.14
74913;BME280;63878;55.624;37.304;2023-08-31T02:14:17;98903.59;;;14.02;68.34
74913;BME280;63878;55.624;37.304;2023-08-31T02:24:18;98892.94;;;13.85;69.07
74913;BME280;63878;55.624;37.304;2023-08-31T02:34:18;98908.25;;;13.81;69.61
74913;BME280;63878;55.624;37.304;2023-08-31T02:44:19;98916.31;;;13.60;70.39
74913;BME280;63878;55.624;37.304;2023-08-31T02:54:19;98902.56;;;13.37;71.33
74913;BME280;63878;55.624;37.304;2023-08-31T03:04:20;98893.97;;;13.35;71.32
74913;BME280;63878;55.624;37.304;2023-08-31T03:14:20;98915.66;;;13.39;71.82
74913;BME280;63878;55.624;37.304;2023-08-31T03:24:20;98910.31;;;13.87;70.05
74913;BME280;63878;55.624;37.304;2023-08-31T03:34:21;98915.34;;;14.27;68.23
74913;BME280;63878;55.624;37.304;2023-08-31T03:44:21;98907.31;;;14.19;68.85
74913;BME280;63878;55.624;37.304;2023-08-31T03:54:22;98922.53;;;14.35;68.43
74913;BME280;63878;55.624;37.304;2023-08-31T04:04:22;98921.81;;;14.70;67.73
74913;BME280;63878;55.624;37.304;2023-08-31T04:14:23;98939.13;;;15.28;65.22
74913;BME280;63878;55.624;37.304;2023-08-31T04:24:23;98941.53;;;15.21;65.26
74913;BME280;63878;55.624;37.304;2023-08-31T04:34:24;98959.00;;;15.50;64.72
74913;BME280;63878;55.624;37.304;2023-08-31T04:44:24;98960.28;;;15.81;64.45
74913;BME280;63878;55.624;37.304;2023-08-31T04:54:24;98955.63;;;16.01;63.78
74913;BME280;63878;55.624;37.304;2023-08-31T05:04:25;98963.78;;;16.34;62.21
74913;BME280;63878;55.624;37.304;2023-08-31T05:14:25;98963.19;;;16.82;61.59
74913;BME280;63878;55.624;37.304;2023-08-31T05:24:26;98961.81;;;17.20;59.70
74913;BME280;63878;55.624;37.304;2023-08-31T05:34:27;98970.00;;;17.76;59.39
74913;BME280;63878;55.624;37.304;2023-08-31T05:44:27;98996.31;;;18.51;57.27
74913;BME280;63878;55.624;37.304;2023-08-31T05:54:27;99001.94;;;18.64;55.74
74913;BME280;63878;55.624;37.304;2023-08-31T06:04:28;99000.47;;;19.01;55.82
74913;BME280;63878;55.624;37.304;2023-08-31T06:14:28;98992.41;;;17.98;57.69
74913;BME280;63878;55.624;37.304;2023-08-31T06:24:29;98990.44;;;18.00;57.34
74913;BME280;63878;55.624;37.304;2023-08-31T06:34:30;99007.84;;;18.27;57.17
74913;BME280;63878;55.624;37.304;2023-08-31T06:44:30;98994.34;;;18.45;56.48
74913;BME280;63878;55.624;37.304;2023-08-31T06:54:31;99004.63;;;18.56;56.54
74913;BME280;63878;55.624;37.304;2023-08-31T07:04:31;99008.59;;;18.68;56.09
74913;BME280;63878;55.624;37.304;2023-08-31T07:14:32;99002.94;;;18.63;57.45
74913;BME280;63878;55.624;37.304;2023-08-31T07:24:32;99008.00;;;18.89;56.70
74913;BME280;63878;55.624;37.304;2023-08-31T07:34:33;99000.75;;;19.06;57.11
74913;BME280;63878;55.624;37.304;2023-08-31T07:44:34;98998.16;;;18.98;56.40
74913;BME280;63878;55.624;37.304;2023-08-31T07:54:34;98992.03;;;18.89;55.53
74913;BME280;63878;55.624;37.304;2023-08-31T08:04:35;98990.66;;;19.01;54.82
74913;BME280;63878;55.624;37.304;2023-08-31T08:14:35;98986.41;;;19.46;57.20
74913;BME280;63878;55.624;37.304;2023-08-31T08:24:36;99000.41;;;19.48;54.90
74913;BME280;63878;55.624;37.304;2023-08-31T08:34:36;99005.09;;;19.38;54.47
74913;BME280;63878;55.624;37.304;2023-08-31T08:44:36;98998.25;;;19.43;54.23
74913;BME280;63878;55.624;37.304;2023-08-31T08:54:38;99015.59;;;19.85;55.96
74913;BME280;63878;55.624;37.304;2023-08-31T09:04:39;99010.59;;;20.05;53.17
74913;BME280;63878;55.624;37.304;2023-08-31T09:14:39;99003.50;;;20.35;53.48
74913;BME280;63878;55.624;37.304;2023-08-31T09:24:40;99001.25;;;21.27;54.46
74913;BME280;63878;55.624;37.304;2023-08-31T09:34:41;99003.69;;;20.78;50.79
74913;BME280;63878;55.624;37.304;2023-08-31T09:44:45;99001.19;;;20.47;51.27
74913;BME280;63878;55.624;37.304;2023-08-31T09:54:50;99003.03;;;20.32;53.71
74913;BME280;63878;55.624;37.304;2023-08-31T10:04:52;98999.09;;;20.27;52.78
74913;BME280;63878;55.624;37.304;2023-08-31T10:14:54;99004.91;;;20.61;52.70
74913;BME280;63878;55.624;37.304;2023-08-31T10:25:03;99002.59;;;20.57;52.16
74913;BME280;63878;55.624;37.304;2023-08-31T10:35:05;99002.22;;;20.75;54.05
74913;BME280;63878;55.624;37.304;2023-08-31T10:45:06;98987.38;;;21.38;52.39
74913;BME280;63878;55.624;37.304;2023-08-31T10:55:07;98989.81;;;21.55;51.53
74913;BME280;63878;55.624;37.304;2023-08-31T11:05:15;98985.50;;;21.18;51.54
74913;BME280;63878;55.624;37.304;2023-08-31T11:15:21;98981.06;;;21.25;54.14
74913;BME280;63878;55.624;37.304;2023-08-31T11:25:22;98968.84;;;21.16;51.41
74913;BME280;63878;55.624;37.304;2023-08-31T11:35:23;98971.97;;;21.19;53.90
74913;BME280;63878;55.624;37.304;2023-08-31T11:45:24;98953.34;;;20.90;53.25
74913;BME280;63878;55.624;37.304;2023-08-31T11:55:25;98946.13;;;21.26;51.62
74913;BME280;63878;55.624;37.304;2023-08-31T12:05:29;98934.47;;;21.27;49.80
74913;BME280;63878;55.624;37.304;2023-08-31T12:15:32;98923.19;;;21.32;50.10
74913;BME280;63878;55.624;37.304;2023-08-31T12:25:33;98908.22;;;21.37;49.95
74913;BME280;63878;55.624;37.304;2023-08-31T12:35:33;98910.69;;;21.39;50.04
74913;BME280;63878;55.624;37.304;2023-08-31T12:45:34;98898.19;;;21.61;49.65
74913;BME280;63878;55.624;37.304;2023-08-31T12:55:34;98898.94;;;21.55;51.19
74913;BME280;63878;55.624;37.304;2023-08-31T13:05:39;98904.16;;;21.63;50.15
74913;BME280;63878;55.624;37.304;2023-08-31T13:15:39;98902.66;;;22.10;51.79
74913;BME280;63878;55.624;37.304;2023-08-31T13:25:40;98884.63;;;21.90;51.55
74913;BME280;63878;55.624;37.304;2023-08-31T13:35:41;98891.06;;;21.68;50.28
74913;BME280;63878;55.624;37.304;2023-08-31T13:45:41;98884.69;;;21.69;50.20
74913;BME280;63878;55.624;37.304;2023-08-31T13:55:42;98874.75;;;21.63;50.97
74913;BME280;63878;55.624;37.304;2023-08-31T14:05:47;98885.81;;;21.81;50.46
74913;BME280;63878;55.624;37.304;2023-08-31T14:15:48;98885.06;;;21.94;50.18
74913;BME280;63878;55.624;37.304;2023-08-31T14:25:49;98871.06;;;21.64;51.21
74913;BME280;63878;55.624;37.304;2023-08-31T14:35:50;98873.72;;;21.64;51.60
74913;BME280;63878;55.624;37.304;2023-08-31T14:45:50;98864.28;;;21.47;52.43
74913;BME280;63878;55.624;37.304;2023-08-31T14:55:51;98865.09;;;21.41;52.44
74913;BME280;63878;55.624;37.304;2023-08-31T15:05:52;98863.50;;;21.25;52.65
74913;BME280;63878;55.624;37.304;2023-08-31T15:15:52;98882.84;;;21.27;53.16
74913;BME280;63878;55.624;37.304;2023-08-31T15:25:59;98872.88;;;21.14;53.48
74913;BME280;63878;55.624;37.304;2023-08-31T15:36:07;98868.66;;;21.05;53.92
74913;BME280;63878;55.624;37.304;2023-08-31T15:46:08;98871.78;;;21.30;53.11
74913;BME280;63878;55.624;37.304;2023-08-31T15:56:09;98865.03;;;20.91;54.45
74913;BME280;63878;55.624;37.304;2023-08-31T16:06:09;98869.28;;;20.71;55.46
74913;BME280;63878;55.624;37.304;2023-08-31T16:16:10;98866.38;;;20.51;56.05
74913;BME280;63878;55.624;37.304;2023-08-31T16:26:11;98866.22;;;20.38;56.26
74913;BME280;63878;55.624;37.304;2023-08-31T16:36:11;98871.50;;;20.16;57.55
74913;BME280;63878;55.624;37.304;2023-08-31T16:46:12;98873.03;;;19.96;57.93
74913;BME280;63878;55.624;37.304;2023-08-31T16:56:12;98885.78;;;19.86;58.37
74913;BME280;63878;55.624;37.304;2023-08-31T17:06:13;98883.94;;;19.71;58.18
74913;BME280;63878;55.624;37.304;2023-08-31T17:16:14;98887.78;;;19.69;58.16
74913;BME280;63878;55.624;37.304;2023-08-31T17:26:25;98882.66;;;19.67;57.73
74913;BME280;63878;55.624;37.304;2023-08-31T17:36:26;98883.41;;;19.53;57.60
74913;BME280;63878;55.624;37.304;2023-08-31T17:46:26;98883.28;;;19.32;58.19
74913;BME280;63878;55.624;37.304;2023-08-31T17:56:27;98897.84;;;19.44;57.97
74913;BME280;63878;55.624;37.304;2023-08-31T18:06:28;98892.63;;;19.51;58.22
74913;BME280;63878;55.624;37.304;2023-08-31T18:16:29;98902.06;;;19.53;57.58
74913;BME280;63878;55.624;37.304;2023-08-31T18:26:30;98901.28;;;19.30;57.78
74913;BME280;63878;55.624;37.304;2023-08-31T18:36:30;98903.09;;;19.52;57.00
74913;BME280;63878;55.624;37.304;2023-08-31T18:46:31;98902.06;;;19.53;56.53
74913;BME280;63878;55.624;37.304;2023-08-31T18:56:32;98894.56;;;19.57;57.63
74913;BME280;63878;55.624;37.304;2023-08-31T19:06:32;98896.44;;;19.33;56.72
74913;BME280;63878;55.624;37.304;2023-08-31T19:16:33;98895.75;;;19.54;55.78
74913;BME280;63878;55.624;37.304;2023-08-31T19:26:34;98898.91;;;19.72;57.79
74913;BME280;63878;55.624;37.304;2023-08-31T19:36:35;98895.88;;;19.61;55.81
74913;BME280;63878;55.624;37.304;2023-08-31T19:46:35;98890.47;;;19.46;56.67
74913;BME280;63878;55.624;37.304;2023-08-31T19:56:39;98913.94;;;19.51;55.46
74913;BME280;63878;55.624;37.304;2023-08-31T20:06:40;98921.50;;;19.39;55.85
74913;BME280;63878;55.624;37.304;2023-08-31T20:16:41;98918.44;;;19.27;55.83
74913;BME280;63878;55.624;37.304;2023-08-31T20:26:41;98914.41;;;19.08;57.18
74913;BME280;63878;55.624;37.304;2023-08-31T20:36:42;98910.78;;;19.01;57.46
74913;BME280;63878;55.624;37.304;2023-08-31T20:46:43;98918.03;;;18.84;57.58
74913;BME280;63878;55.624;37.304;2023-08-31T20:56:45;98916.84;;;18.87;58.09
74913;BME280;63878;55.624;37.304;2023-08-31T21:06:45;98916.22;;;18.77;58.70
74913;BME280;63878;55.624;37.304;2023-08-31T21:16:46;98933.59;;;18.64;58.51
74913;BME280;63878;55.624;37.304;2023-08-31T21:26:46;98933.63;;;18.56;59.13
74913;BME280;63878;55.624;37.304;2023-08-31T21:36:47;98927.84;;;18.45;59.47
74913;BME280;63878;55.624;37.304;2023-08-31T21:46:47;98928.03;;;18.35;59.65
74913;BME280;63878;55.624;37.304;2023-08-31T21:56:48;98927.72;;;18.22;60.51
74913;BME280;63878;55.624;37.304;2023-08-31T22:06:48;98931.75;;;18.09;60.55
74913;BME280;63878;55.624;37.304;2023-08-31T22:16:49;98928.13;;;17.78;61.79
74913;BME280;63878;55.624;37.304;2023-08-31T22:26:49;98923.81;;;17.85;61.46
74913;BME280;63878;55.624;37.304;2023-08-31T22:36:50;98931.78;;;17.85;61.72
74913;BME280;63878;55.624;37.304;2023-08-31T22:46:51;98914.72;;;17.79;61.68
74913;BME280;63878;55.624;37.304;2023-08-31T22:56:52;98915.84;;;17.77;61.61
74913;BME280;63878;55.624;37.304;2023-08-31T23:06:52;98919.34;;;17.69;62.02
74913;BME280;63878;55.624;37.304;2023-08-31T23:16:53;98922.03;;;17.61;62.28
74913;BME280;63878;55.624;37.304;2023-08-31T23:26:53;98928.13;;;17.53;62.53
74913;BME280;63878;55.624;37.304;2023-08-31T23:36:54;98927.31;;;17.53;62.45
74913;BME280;63878;55.624;37.304;2023-08-31T23:46:55;98909.88;;;17.34;63.14
74913;BME280;63878;55.624;37.304;2023-08-31T23:56:55;98924.13;;;17.25;63.33
